Time;durP1;ratioP1;P1;durP2;ratioP2;P2;SDS_P1;SDS_P2;PMS_P1;PMS_P2;Temp;Humidity;BMP_temperature;BMP_pressure;BME280_temperature;BME280_humidity;BME280_pressure;Samples;Min_cycle;Max_cycle;Signal;HPM_P1;HPM_P2
2022/11/08 00:02:01;;;;;;;8.38;3.10;;;;;;;;;;1031284;28;20153;-76
2022/11/08 00:02:31;;;;;;;6.75;2.10;;;;;;;;;;1030573;28;20026;-77
2022/11/08 00:03:02;;;;;;;4.80;1.80;;;;;;;;;;1026868;28;20446;-77
2022/11/08 00:03:33;;;;;;;5.32;1.98;;;;;;;;;;1027923;28;20022;-76
2022/11/08 00:04:06;;;;;;;4.30;1.83;;;;;;;;;;1027290;28;20601;-77
2022/11/08 00:04:37;;;;;;;8.35;2.88;;;;;;;;;;1030041;28;20026;-76
2022/11/08 00:14:20;;;;;;;5.20;2.42;;;;;;;;;;1027332;28;20158;-77
2022/11/08 00:14:51;;;;;;;4.13;1.92;;;;;;;;;;1031112;28;20026;-78
2022/11/08 00:15:22;;;;;;;4.53;1.90;;;;;;;;;;1031137;28;20046;-78
2022/11/08 00:15:53;;;;;;;8.88;2.92;;;;;;;;;;1031077;28;20643;-78
2022/11/08 00:16:24;;;;;;;6.07;2.42;;;;;;;;;;1031820;28;20049;-78
2022/11/08 00:16:55;;;;;;;7.43;2.25;;;;;;;;;;1031171;28;20460;-77
2022/11/08 00:17:27;;;;;;;8.77;2.47;;;;;;;;;;1031238;28;20684;-77
2022/11/08 00:17:58;;;;;;;6.03;2.53;;;;;;;;;;1030611;28;20022;-78
2022/11/08 00:18:29;;;;;;;5.97;2.03;;;;;;;;;;1030868;28;20030;-77
2022/11/08 00:19:00;;;;;;;5.55;1.92;;;;;;;;;;1031633;28;20076;-78
2022/11/08 00:19:31;;;;;;;5.10;2.35;;;;;;;;;;1030703;28;20034;-77
2022/11/08 00:20:03;;;;;;;5.50;2.35;;;;;;;;;;1030940;28;20101;-78
2022/11/08 00:20:34;;;;;;;4.10;1.85;;;;;;;;;;1034776;28;20168;-78
2022/11/08 00:21:04;;;;;;;6.65;2.33;;;;;;;;;;1034844;28;20025;-78
2022/11/08 00:21:37;;;;;;;6.57;2.45;;;;;;;;;;1031213;28;20026;-77
2022/11/08 00:22:08;;;;;;;4.30;1.80;;;;;;;;;;1029488;28;20034;-78
2022/11/08 00:22:39;;;;;;;6.53;1.77;;;;;;;;;;1026798;28;20038;-78
2022/11/08 00:23:10;;;;;;;5.65;2.28;;;;;;;;;;1026680;28;20027;-78
2022/11/08 00:23:42;;;;;;;7.38;2.90;;;;;;;;;;1030468;28;20117;-78
2022/11/08 00:24:13;;;;;;;5.85;2.53;;;;;;;;;;1031381;28;20121;-76
2022/11/08 00:24:44;;;;;;;5.25;2.22;;;;;;;;;;1026673;28;20085;-76
2022/11/08 00:25:15;;;;;;;6.30;2.10;;;;;;;;;;1024575;28;20029;-76
2022/11/08 00:25:52;;;;;;;8.10;2.90;;;;;;;;;;1027804;28;20117;-77
2022/11/08 00:26:23;;;;;;;7.07;2.45;;;;;;;;;;1027743;28;20067;-76
2022/11/08 00:26:54;;;;;;;5.40;2.70;;;;;;;;;;1031203;28;20019;-77
2022/11/08 00:27:25;;;;;;;5.25;2.03;;;;;;;;;;1029713;28;20015;-77
2022/11/08 00:27:56;;;;;;;8.93;2.58;;;;;;;;;;1027215;28;20069;-77
2022/11/08 00:28:27;;;;;;;5.47;2.35;;;;;;;;;;1030732;28;20073;-77
2022/11/08 00:28:58;;;;;;;5.40;2.25;;;;;;;;;;1030755;28;20007;-77
2022/11/08 00:29:30;;;;;;;6.68;2.95;;;;;;;;;;1031159;28;20090;-76
2022/11/08 00:30:01;;;;;;;6.45;2.35;;;;;;;;;;1026798;28;20093;-78
2022/11/08 00:30:32;;;;;;;8.82;2.53;;;;;;;;;;1026979;28;20168;-77
2022/11/08 00:31:05;;;;;;;6.28;2.50;;;;;;;;;;1030675;28;20018;-78
2022/11/08 00:31:36;;;;;;;7.65;2.40;;;;;;;;;;1031120;28;20022;-78
2022/11/08 00:32:08;;;;;;;4.82;2.10;;;;;;;;;;1030724;28;20014;-77
2022/11/08 00:32:39;;;;;;;5.35;1.88;;;;;;;;;;1030048;28;20030;-77
2022/11/08 00:33:10;;;;;;;9.32;2.58;;;;;;;;;;1027138;28;20059;-77
2022/11/08 00:33:41;;;;;;;10.45;3.53;;;;;;;;;;1030583;28;20022;-78
2022/11/08 00:34:12;;;;;;;5.40;2.50;;;;;;;;;;1031555;28;20019;-77
2022/11/08 00:34:43;;;;;;;9.75;3.40;;;;;;;;;;1030617;28;20398;-77
2022/11/08 00:35:14;;;;;;;4.05;2.08;;;;;;;;;;1030794;28;20756;-78
2022/11/08 00:35:45;;;;;;;7.43;2.55;;;;;;;;;;1030556;28;20473;-76
2022/11/08 00:36:16;;;;;;;7.35;2.75;;;;;;;;;;1030896;28;20149;-77
2022/11/08 00:36:47;;;;;;;7.28;2.20;;;;;;;;;;1035401;28;20598;-76
2022/11/08 00:37:19;;;;;;;4.43;2.17;;;;;;;;;;1030683;28;20068;-77
2022/11/08 00:37:50;;;;;;;7.07;2.45;;;;;;;;;;1030685;28;20018;-77
2022/11/08 00:38:21;;;;;;;8.30;2.92;;;;;;;;;;1026736;28;20015;-77
2022/11/08 00:38:52;;;;;;;6.82;2.60;;;;;;;;;;1026719;28;20014;-76
2022/11/08 00:39:23;;;;;;;7.40;2.60;;;;;;;;;;1031434;28;20140;-76
2022/11/08 00:39:54;;;;;;;9.85;3.65;;;;;;;;;;1030954;28;20434;-76
2022/11/08 00:40:25;;;;;;;6.35;2.90;;;;;;;;;;1030482;28;20773;-75
2022/11/08 00:40:56;;;;;;;8.80;3.45;;;;;;;;;;1030778;28;20015;-76
2022/11/08 00:41:27;;;;;;;9.27;2.70;;;;;;;;;;1026655;28;20481;-77
2022/11/08 00:41:58;;;;;;;6.88;2.60;;;;;;;;;;1027724;28;20095;-76
2022/11/08 00:42:29;;;;;;;7.40;2.80;;;;;;;;;;1030549;28;20023;-77
2022/11/08 00:43:00;;;;;;;7.40;3.22;;;;;;;;;;1026930;28;20066;-79
2022/11/08 00:43:31;;;;;;;8.93;3.60;;;;;;;;;;1030672;28;20042;-77
2022/11/08 00:44:02;;;;;;;6.65;2.92;;;;;;;;;;1030652;28;20022;-78
2022/11/08 00:44:33;;;;;;;6.28;3.55;;;;;;;;;;1031308;28;20055;-77
2022/11/08 00:45:04;;;;;;;8.35;2.85;;;;;;;;;;1030527;28;20022;-77
2022/11/08 00:45:35;;;;;;;6.07;2.40;;;;;;;;;;1030433;28;20469;-77
2022/11/08 00:46:06;;;;;;;5.32;2.55;;;;;;;;;;1030752;28;20575;-76
2022/11/08 00:46:37;;;;;;;10.48;3.13;;;;;;;;;;1030296;28;20112;-76
2022/11/08 00:47:08;;;;;;;7.00;3.00;;;;;;;;;;1027857;28;20626;-76
2022/11/08 00:47:39;;;;;;;6.40;3.00;;;;;;;;;;1033549;28;20511;-77
2022/11/08 00:48:10;;;;;;;5.80;2.22;;;;;;;;;;1030754;28;20031;-78
2022/11/08 00:48:41;;;;;;;8.00;3.40;;;;;;;;;;1030743;28;20517;-77
2022/11/08 00:49:12;;;;;;;6.75;3.17;;;;;;;;;;1030559;28;20026;-77
2022/11/08 00:49:43;;;;;;;7.00;3.33;;;;;;;;;;1031335;28;20496;-77
2022/11/08 00:50:14;;;;;;;10.60;3.38;;;;;;;;;;1031163;28;20101;-77
2022/11/08 00:50:45;;;;;;;11.02;3.25;;;;;;;;;;1030833;28;20073;-77
2022/11/08 00:51:16;;;;;;;7.25;2.72;;;;;;;;;;1031109;28;20026;-77
2022/11/08 00:51:47;;;;;;;8.38;3.47;;;;;;;;;;1030100;28;20022;-77
2022/11/08 00:52:18;;;;;;;5.63;3.13;;;;;;;;;;1031513;28;20591;-78
2022/11/08 00:52:49;;;;;;;7.38;2.80;;;;;;;;;;1030119;28;20030;-77
2022/11/08 00:53:20;;;;;;;10.23;3.00;;;;;;;;;;1030462;28;20031;-76
2022/11/08 00:53:51;;;;;;;8.43;3.03;;;;;;;;;;1030560;28;20719;-77
2022/11/08 00:54:22;;;;;;;7.63;3.53;;;;;;;;;;1030746;28;20061;-75
2022/11/08 00:54:53;;;;;;;6.00;2.33;;;;;;;;;;1031216;28;20028;-76
2022/11/08 00:55:24;;;;;;;7.70;2.88;;;;;;;;;;1030592;28;20030;-78
2022/11/08 00:56:01;;;;;;;9.82;3.45;;;;;;;;;;1028581;28;20035;-78
2022/11/08 00:56:33;;;;;;;9.10;3.40;;;;;;;;;;1025682;28;20038;-76
2022/11/08 00:57:04;;;;;;;6.35;2.65;;;;;;;;;;1022453;29;20039;-77
2022/11/08 00:57:38;;;;;;;11.10;3.67;;;;;;;;;;1025517;28;20019;-75
2022/11/08 00:58:09;;;;;;;7.15;2.88;;;;;;;;;;1030469;28;20403;-76
2022/11/08 00:58:43;;;;;;;4.20;2.63;;;;;;;;;;1030743;28;20582;-76
2022/11/08 00:59:14;;;;;;;9.07;4.05;;;;;;;;;;1030532;28;20085;-76
2022/11/08 00:59:45;;;;;;;6.68;3.50;;;;;;;;;;1031113;28;20030;-77
2022/11/08 01:00:17;;;;;;;7.18;3.03;;;;;;;;;;1030733;28;20026;-77
2022/11/08 01:00:47;;;;;;;3.67;2.10;;;;;;;;;;1030244;28;20105;-77
2022/11/08 01:01:20;;;;;;;8.02;3.03;;;;;;;;;;1029987;28;20030;-76
2022/11/08 01:01:51;;;;;;;6.68;3.28;;;;;;;;;;1030542;28;20037;-76
2022/11/08 01:02:22;;;;;;;6.15;2.25;;;;;;;;;;1031403;28;20057;-77
2022/11/08 01:03:17;;;;;;;4.70;2.00;;;;;;;;;;1030104;28;20026;-77
2022/11/08 01:03:44;;;;;;;7.38;2.92;;;;;;;;;;1026491;28;20030;-77
2022/11/08 01:04:16;;;;;;;5.95;2.85;;;;;;;;;;1029600;28;20034;-77
2022/11/08 01:04:47;;;;;;;8.40;2.63;;;;;;;;;;1030543;28;20124;-77
2022/11/08 01:05:18;;;;;;;4.47;2.33;;;;;;;;;;1031322;28;20125;-77
2022/11/08 01:05:51;;;;;;;11.75;3.63;;;;;;;;;;1030654;28;20018;-76
2022/11/08 01:06:22;;;;;;;4.65;2.53;;;;;;;;;;1030276;28;20026;-77
2022/11/08 01:06:53;;;;;;;7.20;3.10;;;;;;;;;;1030468;28;20531;-77
2022/11/08 01:07:24;;;;;;;8.57;2.53;;;;;;;;;;1030828;28;20732;-79
2022/11/08 01:07:55;;;;;;;4.45;2.20;;;;;;;;;;1026528;28;20021;-77
2022/11/08 01:08:26;;;;;;;8.77;2.70;;;;;;;;;;1026336;28;20815;-77
2022/11/08 01:08:57;;;;;;;6.18;2.22;;;;;;;;;;1026286;28;20046;-76
2022/11/08 01:09:28;;;;;;;7.45;2.70;;;;;;;;;;1026863;28;20638;-76
2022/11/08 01:09:59;;;;;;;8.45;2.80;;;;;;;;;;1027014;28;20591;-77
2022/11/08 01:10:30;;;;;;;9.05;2.97;;;;;;;;;;1026456;28;20051;-76
2022/11/08 01:11:03;;;;;;;5.40;1.98;;;;;;;;;;1026490;28;20113;-76
2022/11/08 01:11:33;;;;;;;6.20;2.40;;;;;;;;;;1030321;28;20117;-76
2022/11/08 01:12:04;;;;;;;3.70;1.95;;;;;;;;;;1034308;28;20010;-77
2022/11/08 01:12:37;;;;;;;5.35;2.13;;;;;;;;;;1030913;28;20042;-77
2022/11/08 01:13:08;;;;;;;5.75;2.35;;;;;;;;;;1029722;28;20014;-77
2022/11/08 01:13:39;;;;;;;5.55;2.38;;;;;;;;;;1026415;28;20713;-77
2022/11/08 01:14:11;;;;;;;4.38;2.10;;;;;;;;;;1026279;28;20025;-77
2022/11/08 01:14:41;;;;;;;5.10;2.22;;;;;;;;;;1027759;28;20019;-77
2022/11/08 01:15:12;;;;;;;7.78;2.58;;;;;;;;;;1030717;28;20014;-77
2022/11/08 01:15:44;;;;;;;3.72;1.65;;;;;;;;;;1030320;28;20272;-77
2022/11/08 01:16:17;;;;;;;5.88;2.00;;;;;;;;;;1030170;28;20840;-78
2022/11/08 01:16:48;;;;;;;8.07;2.83;;;;;;;;;;1030179;28;20041;-78
2022/11/08 01:17:19;;;;;;;4.72;2.13;;;;;;;;;;1030494;28;20327;-78
2022/11/08 01:17:50;;;;;;;5.22;1.85;;;;;;;;;;1030778;28;20845;-78
2022/11/08 01:18:21;;;;;;;5.25;2.28;;;;;;;;;;1030361;28;20011;-77
2022/11/08 01:18:53;;;;;;;9.02;2.05;;;;;;;;;;1030152;28;20050;-77
2022/11/08 01:19:24;;;;;;;2.58;1.52;;;;;;;;;;1030261;28;20037;-79
2022/11/08 01:19:55;;;;;;;4.47;2.35;;;;;;;;;;1029779;28;20109;-77
2022/11/08 01:20:26;;;;;;;4.18;1.70;;;;;;;;;;1029932;28;20053;-78
2022/11/08 01:20:57;;;;;;;5.05;1.90;;;;;;;;;;1030189;28;20021;-77
2022/11/08 01:21:28;;;;;;;4.38;1.80;;;;;;;;;;1030399;28;20014;-77
2022/11/08 01:21:59;;;;;;;4.78;1.88;;;;;;;;;;1029881;28;20014;-77
2022/11/08 01:22:30;;;;;;;8.80;3.28;;;;;;;;;;1030162;28;20031;-77
2022/11/08 01:23:01;;;;;;;7.45;2.65;;;;;;;;;;1027844;28;20019;-76
2022/11/08 01:23:34;;;;;;;9.77;2.95;;;;;;;;;;1030270;28;20006;-77
2022/11/08 01:24:05;;;;;;;4.53;1.95;;;;;;;;;;1030315;28;20409;-77
2022/11/08 01:24:36;;;;;;;3.47;2.35;;;;;;;;;;1026334;28;20018;-76
2022/11/08 01:25:07;;;;;;;7.93;2.03;;;;;;;;;;1026181;28;20026;-76
2022/11/08 01:25:39;;;;;;;7.13;1.90;;;;;;;;;;1027274;28;20031;-77
2022/11/08 01:26:11;;;;;;;4.00;1.90;;;;;;;;;;1026246;28;20530;-77
2022/11/08 01:26:42;;;;;;;4.60;2.03;;;;;;;;;;1022822;28;20063;-77
2022/11/08 01:27:16;;;;;;;10.18;2.53;;;;;;;;;;1022415;28;20023;-77
2022/11/08 01:27:47;;;;;;;6.15;1.55;;;;;;;;;;1026235;28;20030;-77
2022/11/08 01:28:18;;;;;;;4.82;1.80;;;;;;;;;;1027560;28;20027;-77
2022/11/08 01:28:49;;;;;;;11.18;2.42;;;;;;;;;;1030114;28;20026;-77
2022/11/08 01:29:20;;;;;;;4.78;2.13;;;;;;;;;;1026153;28;20054;-77
2022/11/08 01:29:51;;;;;;;9.43;2.40;;;;;;;;;;1026520;28;20035;-77
2022/11/08 01:30:22;;;;;;;7.28;2.63;;;;;;;;;;1030126;28;20026;-77
2022/11/08 01:30:54;;;;;;;5.55;1.92;;;;;;;;;;1031089;28;20468;-77
2022/11/08 01:31:30;;;;;;;7.95;2.05;;;;;;;;;;1030427;28;20053;-77
2022/11/08 01:32:01;;;;;;;7.25;2.50;;;;;;;;;;1030627;28;20031;-77
2022/11/08 01:32:32;;;;;;;5.20;2.08;;;;;;;;;;1030025;28;20026;-77
2022/11/08 01:33:03;;;;;;;4.82;1.95;;;;;;;;;;1030936;28;20156;-76
2022/11/08 01:33:34;;;;;;;3.17;1.92;;;;;;;;;;1030198;28;20181;-77
2022/11/08 01:34:05;;;;;;;5.13;2.05;;;;;;;;;;1030258;28;20077;-77
2022/11/08 01:34:36;;;;;;;3.40;1.95;;;;;;;;;;1030164;28;20030;-77
2022/11/08 01:35:07;;;;;;;6.57;2.50;;;;;;;;;;1030309;28;20157;-77
2022/11/08 01:35:38;;;;;;;5.10;1.85;;;;;;;;;;1030659;28;20022;-76
2022/11/08 01:36:10;;;;;;;8.80;2.95;;;;;;;;;;1026046;28;22124;-77
2022/11/08 01:36:41;;;;;;;8.88;2.40;;;;;;;;;;1026200;28;20042;-78
2022/11/08 01:37:12;;;;;;;6.15;2.35;;;;;;;;;;1026503;28;20027;-77
2022/11/08 01:37:43;;;;;;;3.70;1.75;;;;;;;;;;1030308;28;20022;-77
2022/11/08 01:38:14;;;;;;;8.35;2.80;;;;;;;;;;1030700;28;20030;-77
2022/11/08 01:38:45;;;;;;;8.32;2.13;;;;;;;;;;1030127;28;20034;-76
2022/11/08 01:39:16;;;;;;;4.82;1.95;;;;;;;;;;1030016;28;20026;-77
2022/11/08 01:39:47;;;;;;;7.20;1.98;;;;;;;;;;1030310;28;20026;-77
2022/11/08 01:40:18;;;;;;;7.10;2.55;;;;;;;;;;1030640;28;20029;-77
2022/11/08 01:40:49;;;;;;;5.00;1.85;;;;;;;;;;1030951;28;20030;-77
2022/11/08 01:41:21;;;;;;;8.45;2.60;;;;;;;;;;1030210;28;20449;-77
2022/11/08 01:41:52;;;;;;;6.43;2.22;;;;;;;;;;1030384;28;20042;-77
2022/11/08 01:42:29;;;;;;;4.97;2.25;;;;;;;;;;1030716;28;20034;-75
2022/11/08 01:43:17;;;;;;;3.22;1.80;;;;;;;;;;1030349;28;20034;-76
2022/11/08 01:43:49;;;;;;;3.45;1.58;;;;;;;;;;1030789;28;20457;-77
2022/11/08 01:44:21;;;;;;;5.15;2.28;;;;;;;;;;1031038;28;20033;-77
2022/11/08 01:44:59;;;;;;;5.15;2.08;;;;;;;;;;1033326;28;20393;-77
2022/11/08 01:45:30;;;;;;;;;;;;;;;;;;1035096;28;20140;-75
2022/11/08 01:46:19;;;;;;;4.60;2.20;;;;;;;;;;1035313;28;19940;-76
2022/11/08 01:46:50;;;;;;;3.25;1.70;;;;;;;;;;1034914;28;20491;-77
2022/11/08 01:47:21;;;;;;;4.35;1.70;;;;;;;;;;1034350;28;20607;-77
2022/11/08 01:47:52;;;;;;;5.47;2.17;;;;;;;;;;1030339;28;20101;-77
2022/11/08 01:48:24;;;;;;;6.60;2.40;;;;;;;;;;1031165;28;20023;-76
2022/11/08 01:48:57;;;;;;;7.72;2.65;;;;;;;;;;1031028;28;20679;-77
2022/11/08 01:49:39;;;;;;;3.88;1.63;;;;;;;;;;1030970;28;20031;-77
2022/11/08 01:50:12;;;;;;;7.28;2.33;;;;;;;;;;1032303;28;20026;-78
2022/11/08 01:50:43;;;;;;;3.17;1.70;;;;;;;;;;1032889;28;20034;-77
2022/11/08 01:51:15;;;;;;;6.68;2.35;;;;;;;;;;1036150;28;20061;-76
2022/11/08 01:51:54;;;;;;;4.90;2.22;;;;;;;;;;1033500;28;20022;-77
2022/11/08 01:52:32;;;;;;;7.05;2.47;;;;;;;;;;1026789;28;20050;-77
2022/11/08 01:53:03;;;;;;;7.47;2.42;;;;;;;;;;1031240;28;20045;-78
2022/11/08 01:53:35;;;;;;;5.38;2.55;;;;;;;;;;1031257;28;20042;-77
2022/11/08 01:54:07;;;;;;;8.68;2.70;;;;;;;;;;1030520;28;20034;-78
2022/11/08 01:54:57;;;;;;;4.82;1.85;;;;;;;;;;1032091;28;20060;-78
2022/11/08 01:55:35;;;;;;;4.05;1.63;;;;;;;;;;1031732;28;20508;-78
2022/11/08 01:56:07;;;;;;;7.35;2.00;;;;;;;;;;1035286;28;20025;-77
2022/11/08 01:56:38;;;;;;;3.97;1.85;;;;;;;;;;1030319;28;20121;-78
2022/11/08 01:57:13;;;;;;;7.82;2.13;;;;;;;;;;1030465;28;20050;-76
2022/11/08 01:57:48;;;;;;;4.40;2.38;;;;;;;;;;1030310;28;20426;-77
2022/11/08 01:58:21;;;;;;;9.27;2.72;;;;;;;;;;1035739;28;20032;-77
2022/11/08 01:58:54;;;;;;;3.80;1.70;;;;;;;;;;1035187;28;20006;-76
2022/11/08 01:59:25;;;;;;;7.22;2.05;;;;;;;;;;1030262;28;20089;-77
2022/11/08 01:59:57;;;;;;;5.53;2.20;;;;;;;;;;1026290;28;20082;-77
2022/11/08 02:00:28;;;;;;;6.60;1.90;;;;;;;;;;1027159;28;20030;-77
2022/11/08 02:01:01;;;;;;;3.67;1.75;;;;;;;;;;1031050;28;20026;-77
2022/11/08 02:01:32;;;;;;;4.07;1.88;;;;;;;;;;1035113;28;20116;-77
2022/11/08 02:02:03;;;;;;;5.40;1.70;;;;;;;;;;1034783;28;20040;-76
2022/11/08 02:02:37;;;;;;;4.35;2.03;;;;;;;;;;1034864;28;20532;-77
2022/11/08 02:03:10;;;;;;;5.53;1.55;;;;;;;;;;1034571;28;20053;-76
2022/11/08 02:03:42;;;;;;;11.50;2.35;;;;;;;;;;1035077;28;20061;-78
2022/11/08 02:04:13;;;;;;;8.13;2.50;;;;;;;;;;1034391;28;20104;-78
2022/11/08 02:04:44;;;;;;;4.25;1.42;;;;;;;;;;1033492;28;20033;-76
2022/11/08 02:05:26;;;;;;;4.50;1.92;;;;;;;;;;1030594;28;20026;-77
2022/11/08 02:05:57;;;;;;;5.75;2.10;;;;;;;;;;1034480;28;20045;-77
2022/11/08 02:06:29;;;;;;;6.35;2.38;;;;;;;;;;1030720;28;20038;-76
2022/11/08 02:07:01;;;;;;;4.35;1.77;;;;;;;;;;1030553;28;20019;-77
2022/11/08 02:07:32;;;;;;;3.92;1.55;;;;;;;;;;1030367;28;20014;-77
2022/11/08 02:08:10;;;;;;;2.83;1.65;;;;;;;;;;1030349;28;20018;-76
2022/11/08 02:08:42;;;;;;;8.75;3.00;;;;;;;;;;1030505;28;20014;-77
2022/11/08 02:09:13;;;;;;;4.22;2.22;;;;;;;;;;1032390;28;20081;-77
2022/11/08 02:09:46;;;;;;;6.25;1.90;;;;;;;;;;1030294;28;20029;-78
2022/11/08 02:10:17;;;;;;;5.90;1.55;;;;;;;;;;1030401;28;20014;-77
2022/11/08 02:10:50;;;;;;;4.38;1.83;;;;;;;;;;1030515;28;20044;-76
2022/11/08 02:11:21;;;;;;;5.68;1.75;;;;;;;;;;1031211;28;20466;-77
2022/11/08 02:11:52;;;;;;;7.18;2.50;;;;;;;;;;1033820;28;20497;-77
2022/11/08 02:12:24;;;;;;;4.32;1.70;;;;;;;;;;1029736;28;20133;-77
2022/11/08 02:12:56;;;;;;;4.78;2.25;;;;;;;;;;1024951;28;20019;-76
2022/11/08 02:13:28;;;;;;;7.72;2.05;;;;;;;;;;1027479;28;20546;-77
2022/11/08 02:13:59;;;;;;;6.70;3.67;;;;;;;;;;1034883;28;20018;-77
2022/11/08 02:14:30;;;;;;;2.78;1.40;;;;;;;;;;1030247;28;20026;-76
2022/11/08 02:15:01;;;;;;;6.80;2.05;;;;;;;;;;1030122;28;20015;-77
2022/11/08 02:15:32;;;;;;;5.03;2.33;;;;;;;;;;1030430;28;20106;-77
2022/11/08 02:16:06;;;;;;;3.88;1.60;;;;;;;;;;1030188;28;20370;-76
2022/11/08 02:16:37;;;;;;;4.50;1.70;;;;;;;;;;1030967;28;20026;-76
2022/11/08 02:17:08;;;;;;;4.45;1.63;;;;;;;;;;1031555;28;20026;-77
2022/11/08 02:17:39;;;;;;;7.53;2.42;;;;;;;;;;1030619;28;20488;-77
2022/11/08 02:18:11;;;;;;;5.25;1.77;;;;;;;;;;1026035;28;20474;-77
2022/11/08 02:18:43;;;;;;;4.90;1.77;;;;;;;;;;1026520;28;20015;-77
2022/11/08 02:19:19;;;;;;;8.73;1.85;;;;;;;;;;1030811;28;20508;-77
2022/11/08 02:19:50;;;;;;;4.80;1.98;;;;;;;;;;1027672;28;20029;-77
2022/11/08 02:20:21;;;;;;;2.58;1.48;;;;;;;;;;1030331;28;20030;-77
2022/11/08 02:20:58;;;;;;;3.25;1.55;;;;;;;;;;1030412;28;20102;-77
2022/11/08 02:21:36;;;;;;;6.00;1.92;;;;;;;;;;1029353;28;20022;-76
2022/11/08 02:22:12;;;;;;;5.72;1.60;;;;;;;;;;1031054;28;20018;-76
2022/11/08 02:23:06;;;;;;;3.45;1.65;;;;;;;;;;1030502;28;20033;-77
2022/11/08 02:23:39;;;;;;;5.25;2.35;;;;;;;;;;1010257;29;20024;-76
2022/11/08 02:24:11;;;;;;;3.83;1.70;;;;;;;;;;1010938;29;20032;-77
2022/11/08 02:24:42;;;;;;;3.65;1.50;;;;;;;;;;1026325;28;20038;-77
2022/11/08 02:25:13;;;;;;;5.07;2.25;;;;;;;;;;1029598;28;20022;-77
2022/11/08 02:25:44;;;;;;;6.53;2.33;;;;;;;;;;1034623;28;20072;-76
2022/11/08 02:26:16;;;;;;;5.68;2.13;;;;;;;;;;1030295;28;20077;-76
2022/11/08 02:26:49;;;;;;;5.75;2.15;;;;;;;;;;1031288;28;20025;-77
2022/11/08 02:27:20;;;;;;;6.63;1.77;;;;;;;;;;1030471;28;20068;-76
2022/11/08 02:27:51;;;;;;;5.70;2.28;;;;;;;;;;1029905;28;20021;-77
2022/11/08 02:28:22;;;;;;;3.60;2.13;;;;;;;;;;1026663;28;20035;-76
2022/11/08 02:28:54;;;;;;;5.72;2.28;;;;;;;;;;1032825;28;20019;-77
2022/11/08 02:29:26;;;;;;;4.95;1.52;;;;;;;;;;1035167;28;20535;-78
2022/11/08 02:29:57;;;;;;;3.95;1.70;;;;;;;;;;1034592;28;20022;-77
2022/11/08 02:30:34;;;;;;;4.72;2.40;;;;;;;;;;1033788;28;20042;-77
2022/11/08 02:31:07;;;;;;;9.73;2.55;;;;;;;;;;1030358;28;20520;-77
2022/11/08 02:31:38;;;;;;;5.22;1.90;;;;;;;;;;1030239;28;20128;-77
2022/11/08 02:32:10;;;;;;;7.97;1.92;;;;;;;;;;1031492;28;20033;-77
2022/11/08 02:32:41;;;;;;;5.57;1.92;;;;;;;;;;1030350;28;20102;-75
2022/11/08 02:33:16;;;;;;;3.80;1.40;;;;;;;;;;1026325;28;20026;-77
2022/11/08 02:33:48;;;;;;;3.63;1.70;;;;;;;;;;1027149;28;20386;-76
2022/11/08 02:34:20;;;;;;;2.67;1.63;;;;;;;;;;1026506;28;20425;-77
2022/11/08 02:34:58;;;;;;;4.82;1.98;;;;;;;;;;1027085;28;20027;-77
2022/11/08 02:35:29;;;;;;;5.20;1.77;;;;;;;;;;1027870;28;20018;-77
2022/11/08 02:36:01;;;;;;;6.88;2.17;;;;;;;;;;1027671;28;20011;-77
2022/11/08 02:36:32;;;;;;;7.82;2.28;;;;;;;;;;1030204;28;20042;-77
2022/11/08 02:37:03;;;;;;;5.30;1.70;;;;;;;;;;1030975;28;20025;-77
2022/11/08 02:37:34;;;;;;;5.80;2.38;;;;;;;;;;1030493;28;20416;-77
2022/11/08 02:38:05;;;;;;;6.78;2.15;;;;;;;;;;1030220;28;20105;-77
2022/11/08 02:38:40;;;;;;;5.05;1.85;;;;;;;;;;1026357;28;20073;-78
2022/11/08 02:39:10;;;;;;;4.38;1.65;;;;;;;;;;1026779;28;20043;-77
2022/11/08 02:39:42;;;;;;;4.95;1.70;;;;;;;;;;1031266;28;20362;-77
2022/11/08 02:40:12;;;;;;;3.65;1.92;;;;;;;;;;1030216;28;20504;-77
2022/11/08 02:40:47;;;;;;;4.72;2.15;;;;;;;;;;1030341;28;21077;-77
2022/11/08 02:41:18;;;;;;;4.78;1.83;;;;;;;;;;1026335;28;20015;-76
2022/11/08 02:41:49;;;;;;;3.10;1.85;;;;;;;;;;1026923;28;20022;-77
2022/11/08 02:42:20;;;;;;;4.32;1.80;;;;;;;;;;1029773;28;20020;-77
2022/11/08 02:42:51;;;;;;;5.53;1.92;;;;;;;;;;1022658;28;20019;-77
2022/11/08 02:43:24;;;;;;;6.07;2.55;;;;;;;;;;1022251;29;20508;-77
2022/11/08 02:43:56;;;;;;;5.85;2.28;;;;;;;;;;1022771;28;20430;-77
2022/11/08 02:44:27;;;;;;;5.05;2.00;;;;;;;;;;1026942;28;20131;-77
2022/11/08 02:44:58;;;;;;;7.40;2.42;;;;;;;;;;1027463;28;20416;-77
2022/11/08 02:45:29;;;;;;;4.10;2.28;;;;;;;;;;1030290;28;20018;-77
2022/11/08 02:46:00;;;;;;;5.75;2.97;;;;;;;;;;1026251;28;20118;-77
2022/11/08 02:46:31;;;;;;;5.57;2.30;;;;;;;;;;1026381;28;20098;-77
2022/11/08 02:47:02;;;;;;;3.85;1.60;;;;;;;;;;1026284;28;20019;-76
2022/11/08 02:47:33;;;;;;;3.03;1.80;;;;;;;;;;1027152;28;20026;-76
2022/11/08 02:48:04;;;;;;;4.70;1.90;;;;;;;;;;1030114;28;20285;-77
2022/11/08 02:48:35;;;;;;;5.55;2.13;;;;;;;;;;1026534;28;20023;-76
2022/11/08 02:49:06;;;;;;;7.40;2.45;;;;;;;;;;1029216;28;20064;-77
2022/11/08 02:49:37;;;;;;;5.13;2.08;;;;;;;;;;1026293;28;20117;-77
2022/11/08 02:50:08;;;;;;;5.43;2.33;;;;;;;;;;1027135;28;20023;-76
2022/11/08 02:50:40;;;;;;;4.70;1.80;;;;;;;;;;1030238;28;20029;-76
2022/11/08 02:51:11;;;;;;;5.55;2.05;;;;;;;;;;1030321;28;20015;-76
2022/11/08 02:51:42;;;;;;;4.53;1.85;;;;;;;;;;1029783;28;20158;-77
2022/11/08 02:52:13;;;;;;;4.00;1.75;;;;;;;;;;1030289;28;20026;-78
2022/11/08 02:52:44;;;;;;;6.22;2.15;;;;;;;;;;1030802;28;20019;-76
2022/11/08 02:53:14;;;;;;;3.60;1.67;;;;;;;;;;1030613;28;20232;-77
2022/11/08 02:53:45;;;;;;;6.65;2.50;;;;;;;;;;1030205;28;20026;-76
2022/11/08 02:54:16;;;;;;;2.72;1.50;;;;;;;;;;1026209;28;20472;-76
2022/11/08 02:54:47;;;;;;;5.60;2.22;;;;;;;;;;1026315;28;20023;-77
2022/11/08 02:55:18;;;;;;;6.82;2.08;;;;;;;;;;1023162;29;20023;-78
2022/11/08 02:55:49;;;;;;;3.63;1.73;;;;;;;;;;1022872;28;20035;-77
2022/11/08 02:56:20;;;;;;;6.07;2.10;;;;;;;;;;1026498;28;20015;-77
2022/11/08 02:56:51;;;;;;;5.63;1.80;;;;;;;;;;1026289;28;20015;-76
2022/11/08 02:57:22;;;;;;;4.40;2.55;;;;;;;;;;1030466;28;20617;-77
2022/11/08 02:57:56;;;;;;;5.60;1.98;;;;;;;;;;1030672;28;20015;-78
2022/11/08 02:58:27;;;;;;;4.07;2.10;;;;;;;;;;1030235;28;20022;-75
2022/11/08 02:58:57;;;;;;;5.63;2.40;;;;;;;;;;1026180;28;20027;-76
2022/11/08 02:59:28;;;;;;;5.25;1.70;;;;;;;;;;1026217;28;20026;-75
2022/11/08 02:59:59;;;;;;;6.10;2.85;;;;;;;;;;1026948;28;20540;-77
2022/11/08 03:00:31;;;;;;;3.05;2.17;;;;;;;;;;1030783;28;20061;-76
2022/11/08 03:01:02;;;;;;;4.57;2.20;;;;;;;;;;1030012;28;20026;-76
2022/11/08 03:01:33;;;;;;;6.53;1.92;;;;;;;;;;1026195;28;20023;-78
2022/11/08 03:02:04;;;;;;;4.57;1.92;;;;;;;;;;1026069;28;20027;-77
2022/11/08 03:02:37;;;;;;;4.97;1.90;;;;;;;;;;1026998;28;20030;-77
2022/11/08 03:03:08;;;;;;;3.97;2.00;;;;;;;;;;1026275;28;20023;-77
2022/11/08 03:03:39;;;;;;;3.83;1.75;;;;;;;;;;1026438;28;20461;-77
2022/11/08 03:04:10;;;;;;;4.63;1.90;;;;;;;;;;1026226;28;20367;-78
2022/11/08 03:04:41;;;;;;;5.82;2.72;;;;;;;;;;1029599;28;20427;-77
2022/11/08 03:05:12;;;;;;;4.68;2.17;;;;;;;;;;1026719;28;20026;-76
2022/11/08 03:05:46;;;;;;;9.95;2.33;;;;;;;;;;1022438;28;20832;-77
2022/11/08 03:06:17;;;;;;;3.35;1.90;;;;;;;;;;1026053;28;20026;-77
2022/11/08 03:06:48;;;;;;;4.70;2.28;;;;;;;;;;1026979;28;20056;-77
2022/11/08 03:07:19;;;;;;;6.50;2.50;;;;;;;;;;1030083;28;20026;-76
2022/11/08 03:07:50;;;;;;;7.53;2.90;;;;;;;;;;1030965;28;20401;-77
2022/11/08 03:08:21;;;;;;;7.53;2.40;;;;;;;;;;1030382;28;20049;-77
2022/11/08 03:08:52;;;;;;;4.75;1.98;;;;;;;;;;1030273;28;20157;-75
2022/11/08 03:09:23;;;;;;;5.50;2.00;;;;;;;;;;1030027;28;20540;-77
2022/11/08 03:09:54;;;;;;;6.43;2.63;;;;;;;;;;1034358;28;20022;-77
2022/11/08 03:10:25;;;;;;;3.83;2.00;;;;;;;;;;1034664;28;20385;-77
2022/11/08 03:10:58;;;;;;;4.47;2.53;;;;;;;;;;1030376;28;20034;-77
2022/11/08 03:11:29;;;;;;;3.45;1.45;;;;;;;;;;1030108;28;20485;-76
2022/11/08 03:12:00;;;;;;;6.75;2.60;;;;;;;;;;1030342;28;20648;-77
2022/11/08 03:12:31;;;;;;;5.80;2.28;;;;;;;;;;1029568;28;20069;-77
2022/11/08 03:13:03;;;;;;;6.43;1.90;;;;;;;;;;1030727;28;20753;-78
2022/11/08 03:13:34;;;;;;;3.10;2.20;;;;;;;;;;1030202;28;20041;-78
2022/11/08 03:14:05;;;;;;;4.28;1.85;;;;;;;;;;1030349;28;20393;-78
2022/11/08 03:14:36;;;;;;;4.40;2.15;;;;;;;;;;1029933;28;20026;-77
2022/11/08 03:15:07;;;;;;;5.13;2.38;;;;;;;;;;1030063;28;20339;-77
2022/11/08 03:15:38;;;;;;;6.80;2.20;;;;;;;;;;1031891;28;20030;-77
2022/11/08 03:16:09;;;;;;;5.10;1.98;;;;;;;;;;1030289;28;20026;-77
2022/11/08 03:16:40;;;;;;;5.68;2.83;;;;;;;;;;1030882;28;20022;-77
2022/11/08 03:17:11;;;;;;;4.25;1.90;;;;;;;;;;1030846;28;20432;-78
2022/11/08 03:17:42;;;;;;;3.95;2.00;;;;;;;;;;1030991;28;20062;-77
2022/11/08 03:18:13;;;;;;;6.07;2.42;;;;;;;;;;1030181;28;20027;-77
2022/11/08 03:18:44;;;;;;;4.47;1.70;;;;;;;;;;1031078;28;20022;-78
2022/11/08 03:19:15;;;;;;;4.03;1.80;;;;;;;;;;1026862;28;20532;-76
2022/11/08 03:19:46;;;;;;;6.63;2.60;;;;;;;;;;1027125;28;20073;-77
2022/11/08 03:20:17;;;;;;;6.75;2.65;;;;;;;;;;1026849;28;20663;-77
2022/11/08 03:20:48;;;;;;;3.60;2.08;;;;;;;;;;1023536;28;20418;-77
2022/11/08 03:21:19;;;;;;;6.32;2.25;;;;;;;;;;1023401;28;20627;-76
2022/11/08 03:21:50;;;;;;;4.53;1.98;;;;;;;;;;1026820;28;20511;-77
2022/11/08 03:22:21;;;;;;;6.10;1.58;;;;;;;;;;1026797;28;20030;-77